Карточка аэропорта UWWW

Внимание!
Информация на этой странице в стадии наполнения.
Если вы не увидели какой-то информации, или заметили неточность - пожалуйста сообщите нам!
Спасибо!
Команда RU-STAFF
Название аэропортаКурумоч
Название аэропорта (англ.)Kurumoch
Превышение476 ft. (145.1 m.)
Координаты53°30.102', 50°9.3000000000001'
Высота перехода4000 ft
Эшелон переходаQNH>=1013hPa:FL50; QNH<1013hPa:FL60; QNH<977hPa:FL70
Коды ответчика4140-4177
Зона ОрВДСамара РПИ (UWWW)
Данные METARUWWW 211055Z 22005MPS 150V250 9999 SCT033CB 32/13 Q0998 WS R15 R15/63D NOSIG RMK QFE737/0983
Проноз погоды (TAF)UWWW 210751Z 2109/2209 21006G12MPS 9999 SCT020 TX31/2111Z TN17/2201Z TEMPO 2109/2119 VRB18MPS 2000 TSRA SQ BKN016CB BECMG 2119/2120 03006G13MPS TEMPO 2120/2209 35009G16MPS 1000 TSRA BKN004 BKN011CB
NOTAMshow/hide NOTAM
AWOS   TABLE

Информация о ВПП

ВПП Длина ВПП (м.) Покрытие Курс ВПП Частота ILS
052553Асфальтобетон49110.5
232553Асфальтобетон229109.7
153003Железобетон148111.9
333003Железобетон328111.1

Диспетчерские позиции

Позывной Наименование органа УВД Частота
UWWW_TWRСамара-Старт118.200
UWWW_GNDСамара-Руление119.000
UWWWFM1Машина сопровождения119.000
UWWW_APPСамара-Подход124.600
UWWW_R_APPСамара-Круг128.000



Спутниковое изображение